Mont Saint Michel — FNMT — position and weather

sailwx.info

Track history (hours):
 
Tides and Currents Weather Stations Pressure Air Temp Water Temp Dewpoint Dewpoint Depression Visibility Wind Speed Wind Dir Waves Ship Positions

Mont Saint Michel

Last reported at 2020-Jan-08 15:02 UTC. Time now 2020-Jan-18 21:18 UTC.
Position N 49°39' W 001°37'.
Warning: this ship's position is 10 days out of date.

Length 173 m; beam 29 m.

Type: Ship. MMSI: 227023100.

Date/timePositionNaut miles runAvg speedWind from/ knotsBaromVisibWave heightAir tempDewpointWater temp
2020-Jan-08 15:02N 49°39' W 001°37'0 0.0
2020-Jan-08 14:50N 49°39' W 001°37'0 0.0
2020-Jan-08 13:58N 49°39' W 001°37'0 0.0
2020-Jan-08 10:37N 49°39' W 001°37'0 0.0
2020-Jan-08 09:24N 49°39' W 001°37'0 0.0
2020-Jan-08 08:57N 49°39' W 001°37'0 0.0
2020-Jan-08 08:30N 49°39' W 001°37'0 0.0
2020-Jan-08 07:51N 49°39' W 001°37'0 0.0
2020-Jan-07 12:25N 49°39' W 001°37'0 0.0
2020-Jan-07 09:29N 49°39' W 001°37'0 0.0
2020-Jan-07 07:52N 49°39' W 001°37'0 0.0
2020-Jan-07 07:29N 49°39' W 001°37'49 1.6
2020-Jan-06 01:29N 50°24' W 001°08'1610.8
2020-Jan-06 00:00N 50°39' W 000°59'5 9.3
2020-Jan-05 23:30N 50°43' W 001°02'611.8
2020-Jan-05 23:00N 50°48' W 001°07'1 1.4
2020-Jan-05 22:31N 50°49' W 001°06'0 0.0
2020-Jan-05 22:01N 50°49' W 001°06'4312.3
2020-Jan-05 18:30N 50°08' W 000°42'5415.4
2020-Jan-05 15:00N 49°17' W 000°15'13 6.4
2020-Jan-05 13:01N 49°30' W 000°18'2020.2
2020-Jan-05 12:00N 49°49' W 000°29'5020.0
2020-Jan-05 09:30N 50°35' W 000°58'918.5
2020-Jan-05 09:00N 50°44' W 001°04'510.4
2020-Jan-05 08:30N 50°49' W 001°07'1 0.7
2020-Jan-05 07:30N 50°49' W 001°06'0 0.0
2020-Jan-05 07:00N 50°49' W 001°06'6 5.7
2020-Jan-05 06:00N 50°43' W 001°03'714.6
2020-Jan-05 05:30N 50°37' W 000°57'8111.6
2020-Jan-04 22:31N 49°21' W 000°15'3 2.2
2020-Jan-04 21:01N 49°17' W 000°15'0 0.0
2020-Jan-04 20:31N 49°17' W 000°15'1212.0
2020-Jan-04 19:30N 49°29' W 000°19'6618.9
2020-Jan-04 16:01N 50°31' W 000°55'1020.1
2020-Jan-04 15:30N 50°41' W 001°00'816.2
2020-Jan-04 15:00N 50°48' W 001°07'1 1.2
2020-Jan-04 14:00N 50°49' W 001°06'5513.8
2020-Jan-04 10:00N 49°57' W 000°34'3020.2
2020-Jan-04 08:30N 49°29' W 000°19'1019.7
2020-Jan-04 08:00N 49°19' W 000°15'2 1.9
2020-Jan-04 07:00N 49°17' W 000°15'0 0.0
2020-Jan-04 06:31N 49°17' W 000°15'7 4.9
2020-Jan-04 05:01N 49°24' W 000°18'815.8
2020-Jan-04 04:30N 49°32' W 000°23'2013.2
2020-Jan-04 03:00N 49°50' W 000°32'6210.3
2020-Jan-03 21:00N 50°49' W 001°06'2 0.8
2020-Jan-03 19:00N 50°47' W 001°06'9016.4
2020-Jan-03 13:30N 49°23' W 000°16'6 5.9
2020-Jan-03 12:30N 49°17' W 000°15'0 0.0
2020-Jan-03 12:00N 49°17' W 000°15'0 0.0
2020-Jan-03 10:30N 49°17' W 000°15'0 0.0
2020-Jan-03 09:00N 49°17' W 000°15'0 0.0
2020-Jan-03 07:30N 49°17' W 000°15'0 0.0
2020-Jan-03 07:00N 49°17' W 000°15'10 6.9
2020-Jan-03 05:30N 49°27' W 000°19'2114.1
2020-Jan-03 04:00N 49°47' W 000°29'2113.9
2020-Jan-03 02:30N 50°07' W 000°38'3413.5
2020-Jan-03 00:00N 50°39' W 000°58'11 4.5
2020-Jan-02 21:30N 50°49' W 001°06'1 1.6
2020-Jan-02 21:00N 50°48' W 001°07'1414.0
2020-Jan-02 20:00N 50°35' W 000°58'7619.0
2020-Jan-02 16:00N 49°24' W 000°17'7 4.7
2020-Jan-02 14:31N 49°17' W 000°15'0 0.0
2020-Jan-02 14:00N 49°17' W 000°15'0 0.0
2020-Jan-02 10:31N 49°17' W 000°15'14 5.7
2020-Jan-02 08:00N 49°29' W 000°02'5 9.5
2020-Jan-02 07:30N 49°29' E 000°06'1 0.4
2020-Jan-02 05:31N 49°29' E 000°07'0 0.0
2020-Jan-02 00:30N 49°29' E 000°07'0 0.0
2020-Jan-01 21:00N 49°29' E 000°07'0 0.0
2020-Jan-01 19:31N 49°29' E 000°07'0 0.0
2020-Jan-01 18:30N 49°29' E 000°07'0 0.0
2020-Jan-01 18:01N 49°29' E 000°07'0 0.0
2020-Jan-01 15:01N 49°29' E 000°07'0 0.0
2020-Jan-01 13:01N 49°29' E 000°07'0 0.0
2020-Jan-01 12:00N 49°29' E 000°07'0 0.0
2020-Jan-01 11:30N 49°29' E 000°07'0 0.0
2020-Jan-01 10:01N 49°29' E 000°07'0 0.0
2020-Jan-01 08:30N 49°29' E 000°07'0 0.0
2020-Jan-01 07:30N 49°29' E 000°07'0 0.0
2020-Jan-01 06:01N 49°29' E 000°07'0 0.0
2020-Jan-01 03:30N 49°29' E 000°07'0 0.0
2020-Jan-01 02:30N 49°29' E 000°07'0 0.0
2020-Jan-01 01:30N 49°29' E 000°07'0 0.0
2019-Dec-31 23:30N 49°29' E 000°07'0 0.0
2019-Dec-31 22:00N 49°29' E 000°07'0 0.0
2019-Dec-31 21:00N 49°29' E 000°07'0 0.0
2019-Dec-31 20:30N 49°29' E 000°07'0 0.0
2019-Dec-31 19:00N 49°29' E 000°07'0 0.0
2019-Dec-31 18:00N 49°29' E 000°07'0 0.0
2019-Dec-31 17:30N 49°29' E 000°07'17 8.6
2019-Dec-31 15:30N 49°19' W 000°15'1 1.4
2019-Dec-31 14:30N 49°17' W 000°15'0 0.0
2019-Dec-31 14:00N 49°17' W 000°15'2416.1
2019-Dec-31 12:30N 49°40' W 000°26'1919.1
2019-Dec-31 11:30N 49°58' W 000°38'5415.4
2019-Dec-31 08:00N 50°49' W 001°06'0 0.0
2019-Dec-31 07:30N 50°49' W 001°06'0 0.0
2019-Dec-31 07:00N 50°49' W 001°06'1 1.5
2019-Dec-31 06:30N 50°48' W 001°07'611.9
2019-Dec-31 06:00N 50°43' W 001°02'714.7
2019-Dec-31 05:30N 50°36' W 000°59'611.1
2019-Dec-31 05:00N 50°31' W 000°56'611.6
2019-Dec-31 04:30N 50°25' W 000°53'1811.8
2019-Dec-31 03:00N 50°09' W 000°43'2411.8
2019-Dec-31 01:00N 49°47' W 000°29'3110.4
2019-Dec-30 22:00N 49°17' W 000°15'5 2.4
2019-Dec-30 20:01N 49°22' W 000°15'3517.7
2019-Dec-30 18:01N 49°55' W 000°36'3718.5
2019-Dec-30 16:01N 50°30' W 000°55'6 1.4
2019-Dec-30 12:00N 50°35' W 000°58'3020.2
2019-Dec-30 10:30N 50°07' W 000°42'5215.0
2019-Dec-30 07:00N 49°17' W 000°15'0 0.1
2019-Dec-30 05:31N 49°17' W 000°15'714.2
2019-Dec-30 05:01N 49°24' W 000°17'2315.5
2019-Dec-30 03:31N 49°46' W 000°29'2214.7
2019-Dec-30 02:01N 50°07' W 000°41'4514.9
2019-Dec-29 23:01N 50°48' W 001°07'21 6.0
2019-Dec-29 19:30N 50°29' W 000°52'2019.8
2019-Dec-29 18:30N 50°10' W 000°44'  
Track history (hours):
 
Tides and Currents Weather Stations Pressure Air Temp Water Temp Dewpoint Dewpoint Depression Visibility Wind Speed Wind Dir Waves Ship Positions

Mont Saint Michel

Last reported at 2020-Jan-08 15:02 UTC. Time now 2020-Jan-18 21:18 UTC.
Position N 49°39' W 001°37'.
Warning: this ship's position is 10 days out of date.

Length 173 m; beam 29 m.

Type: Ship. MMSI: 227023100.

Date/timePositionNaut miles runAvg speedWind from/ knotsBaromVisibWave heightAir tempDewpointWater temp
2020-Jan-08 15:02N 49°39' W 001°37'0 0.0
2020-Jan-08 14:50N 49°39' W 001°37'0 0.0
2020-Jan-08 13:58N 49°39' W 001°37'0 0.0
2020-Jan-08 10:37N 49°39' W 001°37'0 0.0
2020-Jan-08 09:24N 49°39' W 001°37'0 0.0
2020-Jan-08 08:57N 49°39' W 001°37'0 0.0
2020-Jan-08 08:30N 49°39' W 001°37'0 0.0
2020-Jan-08 07:51N 49°39' W 001°37'0 0.0
2020-Jan-07 12:25N 49°39' W 001°37'0 0.0
2020-Jan-07 09:29N 49°39' W 001°37'0 0.0
2020-Jan-07 07:52N 49°39' W 001°37'0 0.0
2020-Jan-07 07:29N 49°39' W 001°37'49 1.6
2020-Jan-06 01:29N 50°24' W 001°08'1610.8
2020-Jan-06 00:00N 50°39' W 000°59'5 9.3
2020-Jan-05 23:30N 50°43' W 001°02'611.8
2020-Jan-05 23:00N 50°48' W 001°07'1 1.4
2020-Jan-05 22:31N 50°49' W 001°06'0 0.0
2020-Jan-05 22:01N 50°49' W 001°06'4312.3
2020-Jan-05 18:30N 50°08' W 000°42'5415.4
2020-Jan-05 15:00N 49°17' W 000°15'13 6.4
2020-Jan-05 13:01N 49°30' W 000°18'2020.2
2020-Jan-05 12:00N 49°49' W 000°29'5020.0
2020-Jan-05 09:30N 50°35' W 000°58'918.5
2020-Jan-05 09:00N 50°44' W 001°04'510.4
2020-Jan-05 08:30N 50°49' W 001°07'1 0.7
2020-Jan-05 07:30N 50°49' W 001°06'0 0.0
2020-Jan-05 07:00N 50°49' W 001°06'6 5.7
2020-Jan-05 06:00N 50°43' W 001°03'714.6
2020-Jan-05 05:30N 50°37' W 000°57'8111.6
2020-Jan-04 22:31N 49°21' W 000°15'3 2.2
2020-Jan-04 21:01N 49°17' W 000°15'0 0.0
2020-Jan-04 20:31N 49°17' W 000°15'1212.0
2020-Jan-04 19:30N 49°29' W 000°19'6618.9
2020-Jan-04 16:01N 50°31' W 000°55'1020.1
2020-Jan-04 15:30N 50°41' W 001°00'816.2
2020-Jan-04 15:00N 50°48' W 001°07'1 1.2
2020-Jan-04 14:00N 50°49' W 001°06'5513.8
2020-Jan-04 10:00N 49°57' W 000°34'3020.2
2020-Jan-04 08:30N 49°29' W 000°19'1019.7
2020-Jan-04 08:00N 49°19' W 000°15'2 1.9
2020-Jan-04 07:00N 49°17' W 000°15'0 0.0
2020-Jan-04 06:31N 49°17' W 000°15'7 4.9
2020-Jan-04 05:01N 49°24' W 000°18'815.8
2020-Jan-04 04:30N 49°32' W 000°23'2013.2
2020-Jan-04 03:00N 49°50' W 000°32'6210.3
2020-Jan-03 21:00N 50°49' W 001°06'2 0.8
2020-Jan-03 19:00N 50°47' W 001°06'9016.4
2020-Jan-03 13:30N 49°23' W 000°16'6 5.9
2020-Jan-03 12:30N 49°17' W 000°15'0 0.0
2020-Jan-03 12:00N 49°17' W 000°15'0 0.0
2020-Jan-03 10:30N 49°17' W 000°15'0 0.0
2020-Jan-03 09:00N 49°17' W 000°15'0 0.0
2020-Jan-03 07:30N 49°17' W 000°15'0 0.0
2020-Jan-03 07:00N 49°17' W 000°15'10 6.9
2020-Jan-03 05:30N 49°27' W 000°19'2114.1
2020-Jan-03 04:00N 49°47' W 000°29'2113.9
2020-Jan-03 02:30N 50°07' W 000°38'3413.5
2020-Jan-03 00:00N 50°39' W 000°58'11 4.5
2020-Jan-02 21:30N 50°49' W 001°06'1 1.6
2020-Jan-02 21:00N 50°48' W 001°07'1414.0
2020-Jan-02 20:00N 50°35' W 000°58'7619.0
2020-Jan-02 16:00N 49°24' W 000°17'7 4.7
2020-Jan-02 14:31N 49°17' W 000°15'0 0.0
2020-Jan-02 14:00N 49°17' W 000°15'0 0.0
2020-Jan-02 10:31N 49°17' W 000°15'14 5.7
2020-Jan-02 08:00N 49°29' W 000°02'5 9.5
2020-Jan-02 07:30N 49°29' E 000°06'1 0.4
2020-Jan-02 05:31N 49°29' E 000°07'0 0.0
2020-Jan-02 00:30N 49°29' E 000°07'0 0.0
2020-Jan-01 21:00N 49°29' E 000°07'0 0.0
2020-Jan-01 19:31N 49°29' E 000°07'0 0.0
2020-Jan-01 18:30N 49°29' E 000°07'0 0.0
2020-Jan-01 18:01N 49°29' E 000°07'0 0.0
2020-Jan-01 15:01N 49°29' E 000°07'0 0.0
2020-Jan-01 13:01N 49°29' E 000°07'0 0.0
2020-Jan-01 12:00N 49°29' E 000°07'0 0.0
2020-Jan-01 11:30N 49°29' E 000°07'0 0.0
2020-Jan-01 10:01N 49°29' E 000°07'0 0.0
2020-Jan-01 08:30N 49°29' E 000°07'0 0.0
2020-Jan-01 07:30N 49°29' E 000°07'0 0.0
2020-Jan-01 06:01N 49°29' E 000°07'0 0.0
2020-Jan-01 03:30N 49°29' E 000°07'0 0.0
2020-Jan-01 02:30N 49°29' E 000°07'0 0.0
2020-Jan-01 01:30N 49°29' E 000°07'0 0.0
2019-Dec-31 23:30N 49°29' E 000°07'0 0.0
2019-Dec-31 22:00N 49°29' E 000°07'0 0.0
2019-Dec-31 21:00N 49°29' E 000°07'0 0.0
2019-Dec-31 20:30N 49°29' E 000°07'0 0.0
2019-Dec-31 19:00N 49°29' E 000°07'0 0.0
2019-Dec-31 18:00N 49°29' E 000°07'0 0.0
2019-Dec-31 17:30N 49°29' E 000°07'17 8.6
2019-Dec-31 15:30N 49°19' W 000°15'1 1.4
2019-Dec-31 14:30N 49°17' W 000°15'0 0.0
2019-Dec-31 14:00N 49°17' W 000°15'2416.1
2019-Dec-31 12:30N 49°40' W 000°26'1919.1
2019-Dec-31 11:30N 49°58' W 000°38'5415.4
2019-Dec-31 08:00N 50°49' W 001°06'0 0.0
2019-Dec-31 07:30N 50°49' W 001°06'0 0.0
2019-Dec-31 07:00N 50°49' W 001°06'1 1.5
2019-Dec-31 06:30N 50°48' W 001°07'611.9
2019-Dec-31 06:00N 50°43' W 001°02'714.7
2019-Dec-31 05:30N 50°36' W 000°59'611.1
2019-Dec-31 05:00N 50°31' W 000°56'611.6
2019-Dec-31 04:30N 50°25' W 000°53'1811.8
2019-Dec-31 03:00N 50°09' W 000°43'2411.8
2019-Dec-31 01:00N 49°47' W 000°29'3110.4
2019-Dec-30 22:00N 49°17' W 000°15'5 2.4
2019-Dec-30 20:01N 49°22' W 000°15'3517.7
2019-Dec-30 18:01N 49°55' W 000°36'3718.5
2019-Dec-30 16:01N 50°30' W 000°55'6 1.4
2019-Dec-30 12:00N 50°35' W 000°58'3020.2
2019-Dec-30 10:30N 50°07' W 000°42'5215.0
2019-Dec-30 07:00N 49°17' W 000°15'0 0.1
2019-Dec-30 05:31N 49°17' W 000°15'714.2
2019-Dec-30 05:01N 49°24' W 000°17'2315.5
2019-Dec-30 03:31N 49°46' W 000°29'2214.7
2019-Dec-30 02:01N 50°07' W 000°41'4514.9
2019-Dec-29 23:01N 50°48' W 001°07'21 6.0
2019-Dec-29 19:30N 50°29' W 000°52'2019.8
2019-Dec-29 18:30N 50°10' W 000°44'  

Dump ship's entire track history